Curtis, AR (71728)

23:16 CDT le 30 août 2016 (GMT -0500)
Richwoods | | Change Station

Alt. 285 ft 34.03 °N, 93.10 °W | Updated 6 minutes ago

Clear
Ciel dégagé
77.0 ° F
Paraît 78 ° F
N
0.0
Vent Variable Vent de SO

Aujourd'hui
Haut(e) -- | Bas -- ° F
--% Risque de précip.
Hier
Haut(e) -- | Bas -- ° F
Precip. -- pouce
Pression 30.00 pouce
Visibilité 10.0 Miles terrestres
Nuages Ciel dégagé
indice de chaleur 78 ° F
Point de rosée 75 ° F
Humidité 94%
Précipitations 0.00 pouce
Profondeur de la couche neigeuse Non disponible.
6:45 AM 7:40 PM
Lune descendante, 2% visible
METAR KADF 310356Z AUTO 00000KT 10SM CLR 26/24 A3000 RMK AO2 SLP159 T02560244
Pression 30.00 pouce
Visibilité 10.0 Miles terrestres
Nuages Ciel dégagé
indice de chaleur 78 ° F
Point de rosée 75 ° F
Humidité 94%
Précipitations 0.00 pouce
Profondeur de la couche neigeuse Non disponible.
6:45 AM 7:40 PM
Lune descendante, 2% visible
METAR KADF 310356Z AUTO 00000KT 10SM CLR 26/24 A3000 RMK AO2 SLP159 T02560244

10-Day Weather Forecast

Almanac

Astronomie

Aug. 30, 2016 Lever Coucher
Temps réel
Crépuscule civil
Crépuscule nautique
Crépuscule astronomique
Lune
Durée de lumière visible
Longueur du jour
Tomorrow will be .
, % of the Moon is Illuminated

Extrêmes aujourd'hui

State Highs State Lows

Community

WunderPhotos

Upload Photos

1,936,032 Photos téléchargées !

WunderBlog® & News

Nearby

Qualité de l'air

  Qualité de l'air Indice de la qualité de l'air Polluant
Not available.

Épaisseur de neige

Station Depth Altitude

Activité sismique

Ville Distance Mag. Time & Date
Minimum magnitude displayed is 2.5.

Températures des eaux côtières

Lieu Température

Stations

Stations météo à proximité

Emplacement de la station Température Refroidissement éolien Point de rosée Humidité Vent Precip. Alt. Mise à jour Type
                   

Watches & Warnings

There are currently no watches in effect.